Strona główna
METAR-TAF:

METAR-TAF

Lotnisko :

Port lotniczy Florø

Florø, Norwegia

Szerokość geograficzna: 61-35N, Długość geograficzna: 005-02E, wysokość: 0 m

Aktualna obserwacja pogody

Raport powstał 23 minut temu, godzina 17:50 UTC
Wiatr 16 kt od południe
Temperatura 16°C
Wilgotność 72%
Ciśnienie 1013 hPa
Widzialność 10 km lub więcej
Mało chmury na wysokości 1800 ft
Rozproszone chmury na wysokości 2500 ft
Przerywane chmury na wysokości 3500 ft

METAR: ENFL 161750Z 18016KT 9999 FEW018 SCT025 BKN035 16/11 Q1013

czas: 20:13 (18:13 UTC)

Prognoza

Raport powstał 1 godzina i 13 minut temu, godzina 17:00 UTC
Prognoza ważna od 16 godzina 18 UTC do 17 godzina 03 UTC
Wiatr 20 kt od południowo-południowy zachód
Widzialność 10 km lub więcej
Mało chmury na wysokości 1200 ft
Przerywane chmury na wysokości 4000 ft
słaby deszcz, mżawka
Przejściowo
od 16 godzina 18 UTC do 17 godzina 03 UTC
Przerywane chmury na wysokości 1200 ft
deszcz

TAF: ENFL 161700Z 1618/1703 20020KT 9999 -RADZ FEW012 BKN040 TEMPO 1618/1703 RA BKN012

Obserwacja i prognoza pogody dla ponad 4000 lotnisk (raport METAR i TAF).

Dostępne stacje oznaczono żółtymi i czerwonymi punktami na mapie.

Najedź kursorem aby zobaczyć nazwę stacji.

Kliknij aby zobaczyć obserwacje i prognozy pogody.

Aby zmienić mapę: kliknij na zielony przycisk z czarnym krzyżykiem, aby powiększyć; na zielony przycisk z myślnikiem, aby pomniejszyć; na zielone strzałki, aby przejść do map sąsiednich.


METAR-TAF: